UAL133A PTPN-PKMJ
Flight info
| Callsign | UAL133A |
|---|---|
| Flight time | N/A |
| Altitude | 33000 |
| Route | PNI STEFF MAJ |
| Aircraft | B738/M-SDE2E3FGHIRWXY/LB1 |
Departure
| Time | N/A |
|---|---|
| Airport | Pohnpei International Airport (PTPN) |
Arrival
| Time | 2026-04-23 21:42 |
|---|---|
| Airport | Marshall Islands International Airport (PKMJ) |
| Time | Latitude | Longitude | Altitude | Speed | Heading |
|---|---|---|---|---|---|
| 2026-04-23 21:20 | 7.04362 | 169.53456 | 27509 ft | 463 kts | 89° |
| 2026-04-23 21:21 | 7.04321 | 169.56673 | 27075 ft | 456 kts | 89° |
| 2026-04-23 21:21 | 7.04282 | 169.59845 | 26620 ft | 451 kts | 90° |
| 2026-04-23 21:21 | 7.04243 | 169.62991 | 26097 ft | 447 kts | 88° |
| 2026-04-23 21:21 | 7.04202 | 169.66116 | 25552 ft | 445 kts | 89° |
| 2026-04-23 21:22 | 7.04164 | 169.69219 | 25033 ft | 442 kts | 89° |
| 2026-04-23 21:22 | 7.04127 | 169.72266 | 24551 ft | 439 kts | 89° |
| 2026-04-23 21:22 | 7.04089 | 169.75324 | 24073 ft | 435 kts | 89° |
| 2026-04-23 21:22 | 7.04052 | 169.78366 | 23599 ft | 433 kts | 88° |
| 2026-04-23 21:23 | 7.04015 | 169.81388 | 23071 ft | 429 kts | 89° |
| 2026-04-23 21:23 | 7.03978 | 169.84374 | 22590 ft | 424 kts | 89° |
| 2026-04-23 21:23 | 7.03941 | 169.87326 | 22119 ft | 420 kts | 89° |
| 2026-04-23 21:23 | 7.03904 | 169.90248 | 21638 ft | 416 kts | 90° |
| 2026-04-23 21:24 | 7.03867 | 169.93151 | 21148 ft | 412 kts | 90° |
| 2026-04-23 21:24 | 7.03831 | 169.96027 | 20697 ft | 408 kts | 90° |
| 2026-04-23 21:24 | 7.03794 | 169.98872 | 20223 ft | 405 kts | 90° |
| 2026-04-23 21:24 | 7.03759 | 170.01701 | 19769 ft | 402 kts | 89° |
| 2026-04-23 21:25 | 7.03724 | 170.04495 | 19352 ft | 397 kts | 89° |
| 2026-04-23 21:25 | 7.03688 | 170.07276 | 18848 ft | 396 kts | 89° |
| 2026-04-23 21:25 | 7.03651 | 170.10029 | 18495 ft | 391 kts | 89° |
| 2026-04-23 21:25 | 7.03614 | 170.12752 | 18039 ft | 387 kts | 90° |
| 2026-04-23 21:26 | 7.03578 | 170.15461 | 17488 ft | 386 kts | 89° |
| 2026-04-23 21:26 | 7.03544 | 170.18109 | 17167 ft | 378 kts | 89° |
| 2026-04-23 21:26 | 7.03511 | 170.20734 | 16790 ft | 373 kts | 89° |
| 2026-04-23 21:26 | 7.03477 | 170.23324 | 16420 ft | 367 kts | 90° |
| 2026-04-23 21:27 | 7.03442 | 170.25878 | 16127 ft | 359 kts | 89° |
| 2026-04-23 21:27 | 7.03410 | 170.28389 | 15597 ft | 359 kts | 89° |
| 2026-04-23 21:27 | 7.03379 | 170.30906 | 15146 ft | 358 kts | 89° |
| 2026-04-23 21:27 | 7.03343 | 170.33400 | 14757 ft | 353 kts | 90° |
| 2026-04-23 21:28 | 7.03309 | 170.35866 | 14283 ft | 352 kts | 90° |
| 2026-04-23 21:28 | 7.03275 | 170.38336 | 13854 ft | 350 kts | 90° |
| 2026-04-23 21:28 | 7.03242 | 170.40782 | 13346 ft | 348 kts | 89° |
| 2026-04-23 21:28 | 7.03208 | 170.43228 | 12751 ft | 350 kts | 90° |
| 2026-04-23 21:29 | 7.03175 | 170.45630 | 12480 ft | 342 kts | 90° |
| 2026-04-23 21:29 | 7.03141 | 170.47983 | 12372 ft | 329 kts | 90° |
| 2026-04-23 21:29 | 7.03109 | 170.50257 | 12168 ft | 321 kts | 90° |
| 2026-04-23 21:29 | 7.03078 | 170.52466 | 12065 ft | 309 kts | 90° |
| 2026-04-23 21:30 | 7.03048 | 170.54599 | 11931 ft | 300 kts | 90° |
| 2026-04-23 21:30 | 7.03019 | 170.56661 | 11835 ft | 290 kts | 90° |
| 2026-04-23 21:30 | 7.02991 | 170.58666 | 11721 ft | 282 kts | 90° |
| 2026-04-23 21:30 | 7.02964 | 170.60602 | 11593 ft | 274 kts | 90° |
| 2026-04-23 21:31 | 7.02937 | 170.62507 | 11383 ft | 270 kts | 90° |
| 2026-04-23 21:31 | 7.02911 | 170.64395 | 11124 ft | 268 kts | 90° |
| 2026-04-23 21:31 | 7.02884 | 170.66273 | 10802 ft | 269 kts | 90° |
| 2026-04-23 21:31 | 7.02858 | 170.68136 | 10577 ft | 266 kts | 90° |
| 2026-04-23 21:32 | 7.02841 | 170.69365 | 10417 ft | 264 kts | 90° |
| 2026-04-23 21:32 | 7.02814 | 170.71222 | 10076 ft | 266 kts | 90° |
| 2026-04-23 21:32 | 7.02788 | 170.73074 | 9833 ft | 263 kts | 90° |
| 2026-04-23 21:32 | 7.02761 | 170.74919 | 9501 ft | 264 kts | 90° |
| 2026-04-23 21:33 | 7.02735 | 170.76741 | 9323 ft | 258 kts | 90° |
| 2026-04-23 21:33 | 7.02709 | 170.78553 | 9003 ft | 258 kts | 90° |
| 2026-04-23 21:33 | 7.02682 | 170.80359 | 8722 ft | 257 kts | 90° |
| 2026-04-23 21:33 | 7.02656 | 170.82140 | 8500 ft | 253 kts | 91° |
| 2026-04-23 21:34 | 7.02631 | 170.83905 | 8222 ft | 252 kts | 91° |
| 2026-04-23 21:34 | 7.02605 | 170.85668 | 7956 ft | 251 kts | 91° |
| 2026-04-23 21:34 | 7.02579 | 170.87428 | 7703 ft | 251 kts | 91° |
| 2026-04-23 21:34 | 7.02553 | 170.89174 | 7500 ft | 248 kts | 91° |
| 2026-04-23 21:35 | 7.02519 | 170.91488 | 7119 ft | 247 kts | 91° |
| 2026-04-23 21:35 | 7.02502 | 170.92632 | 6946 ft | 247 kts | 91° |
| 2026-04-23 21:35 | 7.02477 | 170.94349 | 6724 ft | 243 kts | 91° |
| 2026-04-23 21:35 | 7.02451 | 170.96061 | 6440 ft | 246 kts | 90° |
| 2026-04-23 21:36 | 7.02400 | 170.99479 | 6087 ft | 241 kts | 91° |
| 2026-04-23 21:36 | 7.02375 | 171.01162 | 5815 ft | 240 kts | 91° |
| 2026-04-23 21:36 | 7.02351 | 171.02836 | 5591 ft | 237 kts | 91° |
| 2026-04-23 21:37 | 7.02326 | 171.04486 | 5399 ft | 233 kts | 91° |
| 2026-04-23 21:37 | 7.02302 | 171.06081 | 5330 ft | 223 kts | 91° |
| 2026-04-23 21:37 | 7.02279 | 171.07625 | 5209 ft | 217 kts | 91° |
| 2026-04-23 21:37 | 7.02256 | 171.09117 | 5126 ft | 209 kts | 91° |
| 2026-04-23 21:38 | 7.02352 | 171.10551 | 4800 ft | 205 kts | 78° |
| 2026-04-23 21:38 | 7.02726 | 171.11936 | 4262 ft | 205 kts | 78° |
| 2026-04-23 21:38 | 7.03080 | 171.13322 | 3752 ft | 203 kts | 78° |
| 2026-04-23 21:38 | 7.03424 | 171.14696 | 3335 ft | 201 kts | 78° |
| 2026-04-23 21:39 | 7.03760 | 171.16053 | 2888 ft | 199 kts | 78° |
| 2026-04-23 21:39 | 7.04095 | 171.17412 | 2424 ft | 200 kts | 78° |
| 2026-04-23 21:39 | 7.04419 | 171.18724 | 2210 ft | 188 kts | 77° |
| 2026-04-23 21:39 | 7.04718 | 171.19937 | 2080 ft | 168 kts | 77° |
| 2026-04-23 21:40 | 7.04987 | 171.21027 | 1857 ft | 155 kts | 78° |
| 2026-04-23 21:40 | 7.05240 | 171.22056 | 1522 ft | 148 kts | 78° |
| 2026-04-23 21:40 | 7.05497 | 171.23087 | 932 ft | 155 kts | 79° |
| 2026-04-23 21:40 | 7.05750 | 171.24096 | 601 ft | 141 kts | 79° |
| 2026-04-23 21:41 | 7.05978 | 171.25000 | 330 ft | 129 kts | 83° |
| 2026-04-23 21:41 | 7.06183 | 171.25873 | 94 ft | 128 kts | 83° |
| 2026-04-23 21:41 | 7.06380 | 171.26704 | 1 ft | 111 kts | 76° |
| 2026-04-23 21:41 | 7.06517 | 171.27263 | 3 ft | 55 kts | 76° |
| 2026-04-23 21:42 | 7.06599 | 171.27607 | 2 ft | 47 kts | 76° |
| 2026-04-23 21:42 | 7.06674 | 171.27897 | 4 ft | 39 kts | 78° |
| 2026-04-23 21:42 | 7.06721 | 171.28065 | 4 ft | 10 kts | 46° |
| 2026-04-23 21:42 | 7.06784 | 171.28087 | 5 ft | 8 kts | 338° |
| 2026-04-23 21:43 | 7.06805 | 171.28066 | 7 ft | 4 kts | 315° |
| 2026-04-23 21:43 | 7.06816 | 171.28054 | 6 ft | 1 kts | 309° |
| 2026-04-23 21:43 | 7.06817 | 171.28053 | 6 ft | 0 kts | 309° |